GAP2686 RPVV-RPLC
Flight info
| Callsign | GAP2686 |
|---|---|
| Flight time | 0h 46m |
| Altitude | 23000 |
| Route | LUBAN B591 SBA TR24 KIBOK KIBOK3N |
| Aircraft | DH8D/M-SDE2E3FGRY/H |
Departure
| Time | 2026-04-26 10:00 |
|---|---|
| Airport | Francisco B. Reyes (Busuanga) Airport (RPVV) |
Arrival
| Time | 2026-04-26 10:46 |
|---|---|
| Airport | Clark International Airport / Clark Air Base (RPLC) |
| Time | Latitude | Longitude | Altitude | Speed | Heading |
|---|---|---|---|---|---|
| 2026-04-26 09:55 | 12.12034 | 120.09902 | 172 ft | 0 kts | 174° |
| 2026-04-26 09:56 | 12.12030 | 120.09901 | 172 ft | 1 kts | 222° |
| 2026-04-26 09:57 | 12.12041 | 120.09878 | 172 ft | 5 kts | 315° |
| 2026-04-26 09:57 | 12.12072 | 120.09841 | 172 ft | 8 kts | 308° |
| 2026-04-26 09:57 | 12.12113 | 120.09792 | 172 ft | 9 kts | 312° |
| 2026-04-26 09:57 | 12.12156 | 120.09727 | 172 ft | 11 kts | 279° |
| 2026-04-26 09:58 | 12.12151 | 120.09643 | 172 ft | 12 kts | 265° |
| 2026-04-26 09:58 | 12.12146 | 120.09556 | 172 ft | 11 kts | 270° |
| 2026-04-26 09:58 | 12.12147 | 120.09521 | 172 ft | 1 kts | 243° |
| 2026-04-26 09:58 | 12.12139 | 120.09522 | 172 ft | 1 kts | 131° |
| 2026-04-26 09:59 | 12.12139 | 120.09529 | 172 ft | 0 kts | 83° |
| 2026-04-26 09:59 | 12.12148 | 120.09618 | 172 ft | 41 kts | 84° |
| 2026-04-26 09:59 | 12.12233 | 120.10532 | 208 ft | 137 kts | 84° |
| 2026-04-26 10:00 | 12.12322 | 120.11536 | 743 ft | 149 kts | 87° |
| 2026-04-26 10:00 | 12.12426 | 120.12605 | 1412 ft | 158 kts | 85° |
| 2026-04-26 10:00 | 12.12693 | 120.13685 | 2056 ft | 166 kts | 61° |
| 2026-04-26 10:00 | 12.13637 | 120.14415 | 2537 ft | 181 kts | 20° |
| 2026-04-26 10:01 | 12.14950 | 120.14481 | 2955 ft | 197 kts | 360° |
| 2026-04-26 10:01 | 12.16341 | 120.14438 | 3450 ft | 200 kts | 1° |
| 2026-04-26 10:01 | 12.17740 | 120.14404 | 3974 ft | 201 kts | 1° |
| 2026-04-26 10:01 | 12.19147 | 120.14368 | 4481 ft | 203 kts | 1° |
| 2026-04-26 10:02 | 12.20569 | 120.14333 | 4977 ft | 205 kts | 1° |
| 2026-04-26 10:02 | 12.21988 | 120.14298 | 5476 ft | 207 kts | 1° |
| 2026-04-26 10:02 | 12.22962 | 120.14275 | 5810 ft | 207 kts | 1° |
| 2026-04-26 10:02 | 12.24878 | 120.14230 | 6442 ft | 209 kts | 1° |
| 2026-04-26 10:03 | 12.26343 | 120.14197 | 6896 ft | 211 kts | 1° |
| 2026-04-26 10:03 | 12.27820 | 120.14163 | 7327 ft | 214 kts | 1° |
| 2026-04-26 10:03 | 12.29323 | 120.14130 | 7770 ft | 215 kts | 1° |
| 2026-04-26 10:03 | 12.30825 | 120.14095 | 8179 ft | 218 kts | 1° |
| 2026-04-26 10:04 | 12.32352 | 120.14061 | 8597 ft | 219 kts | 1° |
| 2026-04-26 10:04 | 12.33882 | 120.14027 | 8992 ft | 221 kts | 1° |
| 2026-04-26 10:04 | 12.35436 | 120.13992 | 9382 ft | 223 kts | 0° |
| 2026-04-26 10:04 | 12.36999 | 120.13957 | 9791 ft | 224 kts | 0° |
| 2026-04-26 10:05 | 12.38570 | 120.13921 | 10177 ft | 225 kts | 0° |
| 2026-04-26 10:05 | 12.40144 | 120.13886 | 10557 ft | 226 kts | 360° |
| 2026-04-26 10:05 | 12.41727 | 120.13851 | 10919 ft | 228 kts | 359° |
| 2026-04-26 10:05 | 12.43311 | 120.13815 | 11283 ft | 229 kts | 359° |
| 2026-04-26 10:06 | 12.44909 | 120.13780 | 11647 ft | 230 kts | 359° |
| 2026-04-26 10:06 | 12.46531 | 120.13744 | 12000 ft | 231 kts | 359° |
| 2026-04-26 10:06 | 12.48137 | 120.13708 | 12348 ft | 231 kts | 358° |
| 2026-04-26 10:06 | 12.49765 | 120.13672 | 12644 ft | 234 kts | 358° |
| 2026-04-26 10:07 | 12.51395 | 120.13636 | 12981 ft | 234 kts | 358° |
| 2026-04-26 10:07 | 12.53036 | 120.13599 | 13278 ft | 235 kts | 358° |
| 2026-04-26 10:07 | 12.54681 | 120.13563 | 13600 ft | 236 kts | 358° |
| 2026-04-26 10:07 | 12.56335 | 120.13526 | 13899 ft | 238 kts | 358° |
| 2026-04-26 10:08 | 12.57995 | 120.13490 | 14210 ft | 238 kts | 358° |
| 2026-04-26 10:08 | 12.59650 | 120.13454 | 14494 ft | 238 kts | 358° |
| 2026-04-26 10:08 | 12.61333 | 120.13416 | 14739 ft | 240 kts | 358° |
| 2026-04-26 10:08 | 12.63002 | 120.13379 | 15019 ft | 241 kts | 358° |
| 2026-04-26 10:09 | 12.64708 | 120.13341 | 15260 ft | 244 kts | 358° |
| 2026-04-26 10:09 | 12.65850 | 120.13316 | 15451 ft | 243 kts | 358° |
| 2026-04-26 10:09 | 12.67547 | 120.13278 | 15692 ft | 245 kts | 358° |
| 2026-04-26 10:09 | 12.69835 | 120.13228 | 16133 ft | 247 kts | 358° |
| 2026-04-26 10:10 | 12.71554 | 120.13191 | 16547 ft | 248 kts | 358° |
| 2026-04-26 10:10 | 12.73316 | 120.13152 | 16904 ft | 251 kts | 358° |
| 2026-04-26 10:10 | 12.75061 | 120.13114 | 17296 ft | 253 kts | 358° |
| 2026-04-26 10:10 | 12.76815 | 120.13075 | 17714 ft | 254 kts | 358° |
| 2026-04-26 10:11 | 12.78018 | 120.13049 | 17940 ft | 256 kts | 358° |
| 2026-04-26 10:11 | 12.80404 | 120.12997 | 18438 ft | 259 kts | 358° |
| 2026-04-26 10:11 | 12.82212 | 120.12956 | 18816 ft | 261 kts | 357° |
| 2026-04-26 10:11 | 12.84037 | 120.12917 | 19198 ft | 262 kts | 357° |
| 2026-04-26 10:12 | 12.85870 | 120.12876 | 19583 ft | 263 kts | 357° |
| 2026-04-26 10:12 | 12.87710 | 120.12835 | 19961 ft | 264 kts | 357° |
| 2026-04-26 10:12 | 12.89538 | 120.12795 | 20336 ft | 265 kts | 357° |
| 2026-04-26 10:12 | 12.91396 | 120.12755 | 20810 ft | 265 kts | 356° |
| 2026-04-26 10:13 | 12.93263 | 120.12714 | 21252 ft | 267 kts | 356° |
| 2026-04-26 10:13 | 12.95120 | 120.12673 | 21668 ft | 270 kts | 356° |
| 2026-04-26 10:13 | 12.97016 | 120.12631 | 22107 ft | 271 kts | 356° |
| 2026-04-26 10:13 | 12.98891 | 120.12590 | 22550 ft | 272 kts | 356° |
| 2026-04-26 10:14 | 13.00833 | 120.12547 | 22783 ft | 283 kts | 356° |
| 2026-04-26 10:14 | 13.02171 | 120.12515 | 22844 ft | 294 kts | 356° |
| 2026-04-26 10:14 | 13.05027 | 120.12445 | 22885 ft | 325 kts | 356° |
| 2026-04-26 10:14 | 13.07371 | 120.12389 | 22889 ft | 349 kts | 356° |
| 2026-04-26 10:15 | 13.09893 | 120.12329 | 22880 ft | 361 kts | 356° |
| 2026-04-26 10:15 | 13.12404 | 120.12270 | 22873 ft | 362 kts | 356° |
| 2026-04-26 10:15 | 13.14923 | 120.12212 | 22866 ft | 363 kts | 356° |
| 2026-04-26 10:15 | 13.17482 | 120.12153 | 22869 ft | 363 kts | 356° |
| 2026-04-26 10:16 | 13.20007 | 120.12096 | 22864 ft | 363 kts | 356° |
| 2026-04-26 10:16 | 13.21699 | 120.12058 | 22864 ft | 363 kts | 356° |
| 2026-04-26 10:16 | 13.24239 | 120.12001 | 22867 ft | 363 kts | 356° |
| 2026-04-26 10:16 | 13.26777 | 120.11944 | 22865 ft | 364 kts | 356° |
| 2026-04-26 10:17 | 13.30162 | 120.11868 | 22865 ft | 363 kts | 356° |
| 2026-04-26 10:17 | 13.32694 | 120.11812 | 22863 ft | 363 kts | 356° |
| 2026-04-26 10:17 | 13.35222 | 120.11756 | 22862 ft | 363 kts | 356° |
| 2026-04-26 10:17 | 13.37751 | 120.11700 | 22865 ft | 363 kts | 356° |
| 2026-04-26 10:18 | 13.40285 | 120.11643 | 22866 ft | 363 kts | 356° |
| 2026-04-26 10:18 | 13.42792 | 120.11588 | 22863 ft | 363 kts | 356° |
| 2026-04-26 10:18 | 13.45327 | 120.11531 | 22862 ft | 363 kts | 356° |
| 2026-04-26 10:18 | 13.47865 | 120.11475 | 22863 ft | 363 kts | 356° |
| 2026-04-26 10:19 | 13.50395 | 120.11419 | 22863 ft | 363 kts | 356° |
| 2026-04-26 10:19 | 13.52921 | 120.11363 | 22864 ft | 363 kts | 356° |
| 2026-04-26 10:19 | 13.55471 | 120.11307 | 22864 ft | 363 kts | 356° |
| 2026-04-26 10:19 | 13.57997 | 120.11250 | 22871 ft | 363 kts | 356° |
| 2026-04-26 10:20 | 13.60517 | 120.11195 | 22871 ft | 363 kts | 356° |
| 2026-04-26 10:20 | 13.62221 | 120.11156 | 22872 ft | 363 kts | 356° |
| 2026-04-26 10:20 | 13.65611 | 120.11082 | 22873 ft | 363 kts | 356° |
| 2026-04-26 10:20 | 13.68154 | 120.11025 | 22878 ft | 363 kts | 356° |
| 2026-04-26 10:21 | 13.70658 | 120.10970 | 22877 ft | 363 kts | 356° |
| 2026-04-26 10:21 | 13.73200 | 120.10913 | 22880 ft | 363 kts | 356° |
| 2026-04-26 10:21 | 13.75734 | 120.10857 | 22884 ft | 363 kts | 356° |
| 2026-04-26 10:21 | 13.78269 | 120.10800 | 22882 ft | 363 kts | 356° |
| 2026-04-26 10:22 | 13.80800 | 120.10744 | 22879 ft | 363 kts | 356° |
| 2026-04-26 10:22 | 13.83359 | 120.10687 | 22876 ft | 363 kts | 356° |
| 2026-04-26 10:22 | 13.85902 | 120.10698 | 22864 ft | 364 kts | 1° |
| 2026-04-26 10:22 | 13.88412 | 120.10980 | 22874 ft | 365 kts | 5° |
| 2026-04-26 10:23 | 13.90935 | 120.11312 | 22874 ft | 365 kts | 5° |
| 2026-04-26 10:23 | 13.93480 | 120.11648 | 22874 ft | 366 kts | 5° |
| 2026-04-26 10:23 | 13.96018 | 120.11981 | 22869 ft | 366 kts | 5° |
| 2026-04-26 10:23 | 13.98546 | 120.12312 | 22860 ft | 366 kts | 5° |
| 2026-04-26 10:24 | 14.01066 | 120.12640 | 22858 ft | 366 kts | 5° |
| 2026-04-26 10:24 | 14.03611 | 120.12969 | 22863 ft | 366 kts | 5° |
| 2026-04-26 10:24 | 14.06136 | 120.13296 | 22860 ft | 366 kts | 5° |
| 2026-04-26 10:24 | 14.08684 | 120.13625 | 22860 ft | 366 kts | 5° |
| 2026-04-26 10:25 | 14.11241 | 120.13955 | 22860 ft | 366 kts | 5° |
| 2026-04-26 10:25 | 14.13755 | 120.14279 | 22858 ft | 366 kts | 4° |
| 2026-04-26 10:25 | 14.16316 | 120.14610 | 22860 ft | 366 kts | 4° |
| 2026-04-26 10:25 | 14.18831 | 120.14934 | 22861 ft | 367 kts | 4° |
| 2026-04-26 10:26 | 14.21377 | 120.15263 | 22856 ft | 367 kts | 4° |
| 2026-04-26 10:26 | 14.23918 | 120.15590 | 22855 ft | 367 kts | 4° |
| 2026-04-26 10:26 | 14.26463 | 120.15918 | 22857 ft | 367 kts | 4° |
| 2026-04-26 10:26 | 14.29003 | 120.16245 | 22857 ft | 367 kts | 4° |
| 2026-04-26 10:27 | 14.31541 | 120.16573 | 22857 ft | 367 kts | 4° |
| 2026-04-26 10:27 | 14.34084 | 120.16901 | 22852 ft | 367 kts | 4° |
| 2026-04-26 10:27 | 14.36632 | 120.17230 | 22853 ft | 367 kts | 4° |
| 2026-04-26 10:27 | 14.39164 | 120.17556 | 22846 ft | 367 kts | 4° |
| 2026-04-26 10:28 | 14.40875 | 120.17776 | 22846 ft | 367 kts | 4° |
| 2026-04-26 10:28 | 14.44271 | 120.18215 | 22847 ft | 367 kts | 4° |
| 2026-04-26 10:28 | 14.46801 | 120.18542 | 22850 ft | 367 kts | 4° |
| 2026-04-26 10:28 | 14.49328 | 120.18868 | 22850 ft | 367 kts | 4° |
| 2026-04-26 10:29 | 14.51891 | 120.19199 | 22854 ft | 367 kts | 4° |
| 2026-04-26 10:29 | 14.54424 | 120.19525 | 22854 ft | 367 kts | 4° |
| 2026-04-26 10:29 | 14.56972 | 120.19854 | 22855 ft | 367 kts | 4° |
| 2026-04-26 10:29 | 14.59511 | 120.20183 | 22855 ft | 367 kts | 4° |
| 2026-04-26 10:30 | 14.62034 | 120.20509 | 22859 ft | 364 kts | 4° |
| 2026-04-26 10:30 | 14.64533 | 120.20831 | 22729 ft | 362 kts | 4° |
| 2026-04-26 10:30 | 14.67055 | 120.21155 | 22339 ft | 366 kts | 4° |
| 2026-04-26 10:30 | 14.69599 | 120.21482 | 21894 ft | 370 kts | 4° |
| 2026-04-26 10:31 | 14.72199 | 120.21816 | 21413 ft | 373 kts | 4° |
| 2026-04-26 10:31 | 14.74771 | 120.22150 | 20924 ft | 373 kts | 4° |
| 2026-04-26 10:31 | 14.77289 | 120.22865 | 20395 ft | 376 kts | 23° |
| 2026-04-26 10:31 | 14.79445 | 120.24355 | 19960 ft | 377 kts | 35° |
| 2026-04-26 10:32 | 14.81533 | 120.26022 | 19465 ft | 377 kts | 36° |
| 2026-04-26 10:32 | 14.83590 | 120.27681 | 18967 ft | 377 kts | 36° |
| 2026-04-26 10:32 | 14.85653 | 120.29346 | 18473 ft | 376 kts | 36° |
| 2026-04-26 10:32 | 14.87713 | 120.31008 | 17985 ft | 375 kts | 36° |
| 2026-04-26 10:33 | 14.89779 | 120.32671 | 17501 ft | 374 kts | 36° |
| 2026-04-26 10:33 | 14.91818 | 120.34312 | 17025 ft | 372 kts | 36° |
| 2026-04-26 10:33 | 14.93865 | 120.35959 | 16523 ft | 371 kts | 36° |
| 2026-04-26 10:33 | 14.95905 | 120.37600 | 16041 ft | 369 kts | 36° |
| 2026-04-26 10:34 | 14.97917 | 120.39217 | 15552 ft | 366 kts | 36° |
| 2026-04-26 10:34 | 14.99935 | 120.40841 | 15074 ft | 361 kts | 36° |
| 2026-04-26 10:34 | 15.01901 | 120.42423 | 14611 ft | 359 kts | 36° |
| 2026-04-26 10:34 | 15.03862 | 120.44000 | 14134 ft | 351 kts | 36° |
| 2026-04-26 10:35 | 15.05764 | 120.45530 | 13696 ft | 345 kts | 36° |
| 2026-04-26 10:35 | 15.07640 | 120.47043 | 13255 ft | 343 kts | 36° |
| 2026-04-26 10:35 | 15.09521 | 120.48557 | 12872 ft | 338 kts | 36° |
| 2026-04-26 10:35 | 15.11372 | 120.50048 | 12444 ft | 336 kts | 36° |
| 2026-04-26 10:36 | 15.13230 | 120.51545 | 12016 ft | 336 kts | 36° |
| 2026-04-26 10:36 | 15.15055 | 120.53017 | 11583 ft | 333 kts | 36° |
| 2026-04-26 10:36 | 15.16849 | 120.54459 | 11156 ft | 318 kts | 36° |
| 2026-04-26 10:36 | 15.18467 | 120.55927 | 10704 ft | 307 kts | 49° |
| 2026-04-26 10:37 | 15.19473 | 120.57803 | 10364 ft | 293 kts | 65° |
| 2026-04-26 10:37 | 15.20252 | 120.59710 | 9979 ft | 283 kts | 66° |
| 2026-04-26 10:37 | 15.21001 | 120.61576 | 9617 ft | 279 kts | 66° |
| 2026-04-26 10:37 | 15.21744 | 120.63443 | 9254 ft | 282 kts | 66° |
| 2026-04-26 10:38 | 15.22493 | 120.65314 | 8869 ft | 278 kts | 66° |
| 2026-04-26 10:38 | 15.23229 | 120.67140 | 8504 ft | 273 kts | 66° |
| 2026-04-26 10:38 | 15.24304 | 120.68716 | 8091 ft | 267 kts | 38° |
| 2026-04-26 10:38 | 15.25934 | 120.69579 | 7763 ft | 259 kts | 22° |
| 2026-04-26 10:39 | 15.27579 | 120.70246 | 7435 ft | 249 kts | 21° |
| 2026-04-26 10:39 | 15.29163 | 120.70877 | 7113 ft | 240 kts | 21° |
| 2026-04-26 10:39 | 15.30717 | 120.71496 | 6796 ft | 238 kts | 21° |
| 2026-04-26 10:39 | 15.32260 | 120.72111 | 6486 ft | 232 kts | 20° |
| 2026-04-26 10:40 | 15.33840 | 120.72422 | 5929 ft | 233 kts | 352° |
| 2026-04-26 10:40 | 15.35213 | 120.71643 | 5628 ft | 232 kts | 310° |
| 2026-04-26 10:40 | 15.36010 | 120.70190 | 5348 ft | 237 kts | 294° |
| 2026-04-26 10:40 | 15.36658 | 120.68617 | 5050 ft | 233 kts | 292° |
| 2026-04-26 10:41 | 15.37263 | 120.67095 | 4746 ft | 228 kts | 292° |
| 2026-04-26 10:41 | 15.37672 | 120.65524 | 4216 ft | 229 kts | 268° |
| 2026-04-26 10:41 | 15.37081 | 120.64088 | 3884 ft | 214 kts | 223° |
| 2026-04-26 10:41 | 15.35851 | 120.63339 | 3624 ft | 201 kts | 203° |
| 2026-04-26 10:42 | 15.34600 | 120.62789 | 3372 ft | 193 kts | 202° |
| 2026-04-26 10:42 | 15.33770 | 120.62432 | 3200 ft | 192 kts | 201° |
| 2026-04-26 10:42 | 15.32107 | 120.61734 | 2882 ft | 198 kts | 201° |
| 2026-04-26 10:42 | 15.30809 | 120.61200 | 2616 ft | 201 kts | 199° |
| 2026-04-26 10:43 | 15.29524 | 120.60677 | 2341 ft | 192 kts | 199° |
| 2026-04-26 10:43 | 15.28350 | 120.60207 | 2108 ft | 168 kts | 200° |
| 2026-04-26 10:43 | 15.27329 | 120.59792 | 1913 ft | 145 kts | 200° |
| 2026-04-26 10:43 | 15.26399 | 120.59406 | 1718 ft | 141 kts | 201° |
| 2026-04-26 10:44 | 15.25499 | 120.59032 | 1546 ft | 142 kts | 201° |
| 2026-04-26 10:44 | 15.24567 | 120.58649 | 1348 ft | 143 kts | 200° |
| 2026-04-26 10:44 | 15.23636 | 120.58272 | 1157 ft | 144 kts | 200° |
| 2026-04-26 10:44 | 15.22702 | 120.57893 | 987 ft | 139 kts | 200° |
| 2026-04-26 10:45 | 15.21812 | 120.57516 | 836 ft | 139 kts | 200° |
| 2026-04-26 10:45 | 15.20883 | 120.57150 | 676 ft | 144 kts | 200° |
| 2026-04-26 10:45 | 15.19945 | 120.56778 | 494 ft | 143 kts | 199° |
| 2026-04-26 10:45 | 15.19115 | 120.56454 | 473 ft | 100 kts | 202° |
| 2026-04-26 10:46 | 15.18612 | 120.56250 | 472 ft | 61 kts | 201° |
| 2026-04-26 10:46 | 15.18291 | 120.56123 | 472 ft | 33 kts | 201° |
| 2026-04-26 10:46 | 15.18150 | 120.56064 | 472 ft | 10 kts | 216° |
| 2026-04-26 10:46 | 15.18141 | 120.56016 | 472 ft | 7 kts | 288° |
| 2026-04-26 10:47 | 15.18157 | 120.55969 | 472 ft | 7 kts | 289° |
| 2026-04-26 10:47 | 15.18178 | 120.55914 | 472 ft | 8 kts | 291° |
| 2026-04-26 10:47 | 15.18204 | 120.55843 | 472 ft | 13 kts | 291° |
| 2026-04-26 10:47 | 15.18242 | 120.55743 | 472 ft | 14 kts | 291° |
| 2026-04-26 10:48 | 15.18298 | 120.55697 | 473 ft | 12 kts | 19° |
| 2026-04-26 10:48 | 15.18422 | 120.55749 | 473 ft | 27 kts | 21° |
| 2026-04-26 10:48 | 15.18579 | 120.55810 | 473 ft | 20 kts | 21° |
| 2026-04-26 10:48 | 15.18708 | 120.55862 | 473 ft | 20 kts | 21° |
| 2026-04-26 10:49 | 15.18860 | 120.55923 | 473 ft | 26 kts | 21° |
| 2026-04-26 10:49 | 15.19012 | 120.55983 | 473 ft | 19 kts | 21° |
| 2026-04-26 10:49 | 15.19126 | 120.55988 | 473 ft | 17 kts | 326° |